Richmond, Virginia
Current Conditions -  °F | °C
As of 8:54 AM on Friday 24 Oct 2014 (Local Time) from KRIC Reporting Station
Broken Clouds Broken Clouds  
Wind Chill: 54°   Ceiling: 25000
Heat Index: 54°   Visibility: 10mi
Dew Point: 43°   Wind: 7mph
Humidity: 66%   Direction: 320°NW
Pressure: 30.01"   Gusts: NA
Location:  37.54°N, 77.43°W
Report Text: KRIC 241254Z 32006KT 10SM FEW180 BKN250 12/06 A3001 RMK AO2 SLP166 T01220061
Loading
Personal Weather Stations






























Interactive Weather Map
Tropical Storm Tracking
New forecast layout! Learn more

10-Day Weather Forecast

Advertisements
Track Severe Weather on mobile